sensor_id;sensor_type;location;lat;lon;timestamp;P1;durP1;ratioP1;P2;durP2;ratioP2
2966;SDS011;1493;51.496;7.210;2024-01-06T00:01:33;10.90;;;9.20;;
2966;SDS011;1493;51.496;7.210;2024-01-06T00:04:00;10.33;;;9.33;;
2966;SDS011;1493;51.496;7.210;2024-01-06T00:06:27;11.43;;;9.53;;
2966;SDS011;1493;51.496;7.210;2024-01-06T00:08:54;10.77;;;9.40;;
2966;SDS011;1493;51.496;7.210;2024-01-06T00:11:21;11.30;;;9.27;;
2966;SDS011;1493;51.496;7.210;2024-01-06T00:13:48;12.40;;;9.83;;
2966;SDS011;1493;51.496;7.210;2024-01-06T00:16:17;13.87;;;10.70;;
2966;SDS011;1493;51.496;7.210;2024-01-06T00:18:45;12.57;;;10.20;;
2966;SDS011;1493;51.496;7.210;2024-01-06T00:21:12;14.93;;;10.40;;
2966;SDS011;1493;51.496;7.210;2024-01-06T00:23:39;13.40;;;10.60;;
2966;SDS011;1493;51.496;7.210;2024-01-06T00:26:06;11.47;;;10.27;;
2966;SDS011;1493;51.496;7.210;2024-01-06T00:28:33;12.00;;;10.17;;
2966;SDS011;1493;51.496;7.210;2024-01-06T00:31:00;12.87;;;9.80;;
2966;SDS011;1493;51.496;7.210;2024-01-06T00:33:29;13.17;;;11.07;;
2966;SDS011;1493;51.496;7.210;2024-01-06T00:35:55;14.07;;;10.90;;
2966;SDS011;1493;51.496;7.210;2024-01-06T00:38:22;12.27;;;10.80;;
2966;SDS011;1493;51.496;7.210;2024-01-06T00:40:49;12.17;;;10.70;;
2966;SDS011;1493;51.496;7.210;2024-01-06T00:43:16;13.03;;;10.53;;
2966;SDS011;1493;51.496;7.210;2024-01-06T00:45:43;13.73;;;10.30;;
2966;SDS011;1493;51.496;7.210;2024-01-06T00:48:09;12.80;;;10.47;;
2966;SDS011;1493;51.496;7.210;2024-01-06T00:50:38;11.50;;;9.90;;
2966;SDS011;1493;51.496;7.210;2024-01-06T00:53:04;13.83;;;10.07;;
2966;SDS011;1493;51.496;7.210;2024-01-06T00:55:31;11.73;;;9.67;;
2966;SDS011;1493;51.496;7.210;2024-01-06T00:57:58;10.13;;;9.10;;
2966;SDS011;1493;51.496;7.210;2024-01-06T01:00:25;15.17;;;10.43;;
2966;SDS011;1493;51.496;7.210;2024-01-06T01:02:52;13.90;;;10.20;;
2966;SDS011;1493;51.496;7.210;2024-01-06T01:05:19;11.87;;;9.13;;
2966;SDS011;1493;51.496;7.210;2024-01-06T01:07:47;13.13;;;11.13;;
2966;SDS011;1493;51.496;7.210;2024-01-06T01:10:14;12.53;;;9.93;;
2966;SDS011;1493;51.496;7.210;2024-01-06T01:12:41;14.30;;;10.63;;
2966;SDS011;1493;51.496;7.210;2024-01-06T01:15:08;12.00;;;10.30;;
2966;SDS011;1493;51.496;7.210;2024-01-06T01:17:35;12.93;;;10.17;;
2966;SDS011;1493;51.496;7.210;2024-01-06T01:20:02;18.10;;;11.63;;
2966;SDS011;1493;51.496;7.210;2024-01-06T01:22:29;13.10;;;10.80;;
2966;SDS011;1493;51.496;7.210;2024-01-06T01:24:58;16.67;;;12.17;;
2966;SDS011;1493;51.496;7.210;2024-01-06T01:27:30;16.03;;;12.87;;
2966;SDS011;1493;51.496;7.210;2024-01-06T01:29:57;16.30;;;12.53;;
2966;SDS011;1493;51.496;7.210;2024-01-06T01:32:23;16.13;;;12.73;;
2966;SDS011;1493;51.496;7.210;2024-01-06T01:34:50;15.63;;;12.00;;
2966;SDS011;1493;51.496;7.210;2024-01-06T01:37:17;12.40;;;10.90;;
2966;SDS011;1493;51.496;7.210;2024-01-06T01:39:44;14.50;;;11.60;;
2966;SDS011;1493;51.496;7.210;2024-01-06T01:42:12;16.80;;;12.80;;
2966;SDS011;1493;51.496;7.210;2024-01-06T01:44:39;12.57;;;10.30;;
2966;SDS011;1493;51.496;7.210;2024-01-06T01:47:06;15.90;;;12.03;;
2966;SDS011;1493;51.496;7.210;2024-01-06T01:49:33;13.23;;;10.53;;
2966;SDS011;1493;51.496;7.210;2024-01-06T01:52:01;13.13;;;10.60;;
2966;SDS011;1493;51.496;7.210;2024-01-06T01:54:28;14.57;;;11.00;;
2966;SDS011;1493;51.496;7.210;2024-01-06T01:56:55;12.77;;;10.77;;
2966;SDS011;1493;51.496;7.210;2024-01-06T01:59:23;15.30;;;10.30;;
2966;SDS011;1493;51.496;7.210;2024-01-06T02:01:50;12.70;;;10.00;;
2966;SDS011;1493;51.496;7.210;2024-01-06T02:04:17;15.07;;;11.07;;
2966;SDS011;1493;51.496;7.210;2024-01-06T02:06:44;14.23;;;10.80;;
2966;SDS011;1493;51.496;7.210;2024-01-06T02:09:11;13.13;;;11.03;;
2966;SDS011;1493;51.496;7.210;2024-01-06T02:11:38;14.07;;;10.73;;
2966;SDS011;1493;51.496;7.210;2024-01-06T02:14:05;15.70;;;11.53;;
2966;SDS011;1493;51.496;7.210;2024-01-06T02:16:33;18.07;;;12.37;;
2966;SDS011;1493;51.496;7.210;2024-01-06T02:19:02;16.80;;;12.67;;
2966;SDS011;1493;51.496;7.210;2024-01-06T02:21:29;18.63;;;13.00;;
2966;SDS011;1493;51.496;7.210;2024-01-06T02:24:02;16.27;;;12.33;;
2966;SDS011;1493;51.496;7.210;2024-01-06T02:26:29;15.57;;;13.10;;
2966;SDS011;1493;51.496;7.210;2024-01-06T02:28:55;16.40;;;11.97;;
2966;SDS011;1493;51.496;7.210;2024-01-06T02:31:22;17.67;;;14.20;;
2966;SDS011;1493;51.496;7.210;2024-01-06T02:33:49;15.30;;;12.47;;
2966;SDS011;1493;51.496;7.210;2024-01-06T02:36:16;18.00;;;14.00;;
2966;SDS011;1493;51.496;7.210;2024-01-06T02:38:43;26.40;;;18.43;;
2966;SDS011;1493;51.496;7.210;2024-01-06T02:41:11;39.40;;;24.17;;
2966;SDS011;1493;51.496;7.210;2024-01-06T02:43:37;28.23;;;19.47;;
2966;SDS011;1493;51.496;7.210;2024-01-06T02:46:04;20.23;;;14.90;;
2966;SDS011;1493;51.496;7.210;2024-01-06T02:48:32;22.60;;;15.37;;
2966;SDS011;1493;51.496;7.210;2024-01-06T02:50:59;24.70;;;17.40;;
2966;SDS011;1493;51.496;7.210;2024-01-06T02:53:26;23.67;;;16.57;;
2966;SDS011;1493;51.496;7.210;2024-01-06T02:55:53;23.50;;;17.23;;
2966;SDS011;1493;51.496;7.210;2024-01-06T02:58:21;22.03;;;16.70;;
2966;SDS011;1493;51.496;7.210;2024-01-06T03:00:51;26.60;;;16.73;;
2966;SDS011;1493;51.496;7.210;2024-01-06T03:03:17;25.13;;;17.13;;
2966;SDS011;1493;51.496;7.210;2024-01-06T03:05:44;28.43;;;19.13;;
2966;SDS011;1493;51.496;7.210;2024-01-06T03:08:14;24.47;;;16.37;;
2966;SDS011;1493;51.496;7.210;2024-01-06T03:10:40;22.37;;;14.37;;
2966;SDS011;1493;51.496;7.210;2024-01-06T03:13:08;22.57;;;12.73;;
2966;SDS011;1493;51.496;7.210;2024-01-06T03:15:36;22.97;;;12.63;;
2966;SDS011;1493;51.496;7.210;2024-01-06T03:18:03;17.53;;;11.90;;
2966;SDS011;1493;51.496;7.210;2024-01-06T03:20:30;16.13;;;10.90;;
2966;SDS011;1493;51.496;7.210;2024-01-06T03:22:57;17.00;;;11.00;;
2966;SDS011;1493;51.496;7.210;2024-01-06T03:25:23;17.90;;;11.83;;
2966;SDS011;1493;51.496;7.210;2024-01-06T03:27:50;21.63;;;12.20;;
2966;SDS011;1493;51.496;7.210;2024-01-06T03:30:17;18.33;;;11.67;;
2966;SDS011;1493;51.496;7.210;2024-01-06T03:32:45;19.07;;;10.80;;
2966;SDS011;1493;51.496;7.210;2024-01-06T03:35:12;17.63;;;10.70;;
2966;SDS011;1493;51.496;7.210;2024-01-06T03:37:40;19.33;;;11.20;;
2966;SDS011;1493;51.496;7.210;2024-01-06T03:40:07;17.90;;;12.43;;
2966;SDS011;1493;51.496;7.210;2024-01-06T03:42:35;15.53;;;9.73;;
2966;SDS011;1493;51.496;7.210;2024-01-06T03:45:02;17.17;;;10.73;;
2966;SDS011;1493;51.496;7.210;2024-01-06T03:47:29;21.10;;;10.67;;
2966;SDS011;1493;51.496;7.210;2024-01-06T03:49:58;15.77;;;10.30;;
2966;SDS011;1493;51.496;7.210;2024-01-06T03:52:24;16.10;;;9.60;;
2966;SDS011;1493;51.496;7.210;2024-01-06T03:54:51;17.30;;;11.70;;
2966;SDS011;1493;51.496;7.210;2024-01-06T03:57:18;14.90;;;10.87;;
2966;SDS011;1493;51.496;7.210;2024-01-06T03:59:45;14.63;;;10.20;;
2966;SDS011;1493;51.496;7.210;2024-01-06T04:02:11;14.30;;;9.47;;
2966;SDS011;1493;51.496;7.210;2024-01-06T04:04:38;15.10;;;9.60;;
2966;SDS011;1493;51.496;7.210;2024-01-06T04:07:07;15.87;;;10.63;;
2966;SDS011;1493;51.496;7.210;2024-01-06T04:09:33;18.07;;;11.90;;
2966;SDS011;1493;51.496;7.210;2024-01-06T04:12:00;16.00;;;10.57;;
2966;SDS011;1493;51.496;7.210;2024-01-06T04:14:27;15.10;;;10.10;;
2966;SDS011;1493;51.496;7.210;2024-01-06T04:16:54;17.47;;;10.40;;
2966;SDS011;1493;51.496;7.210;2024-01-06T04:19:21;15.70;;;10.80;;
2966;SDS011;1493;51.496;7.210;2024-01-06T04:21:48;15.30;;;9.37;;
2966;SDS011;1493;51.496;7.210;2024-01-06T04:24:16;15.47;;;9.37;;
2966;SDS011;1493;51.496;7.210;2024-01-06T04:26:43;14.00;;;9.43;;
2966;SDS011;1493;51.496;7.210;2024-01-06T04:29:11;12.30;;;7.50;;
2966;SDS011;1493;51.496;7.210;2024-01-06T04:31:38;11.33;;;7.57;;
2966;SDS011;1493;51.496;7.210;2024-01-06T04:34:04;14.87;;;8.93;;
2966;SDS011;1493;51.496;7.210;2024-01-06T04:36:31;15.17;;;8.60;;
2966;SDS011;1493;51.496;7.210;2024-01-06T04:38:58;16.27;;;9.17;;
2966;SDS011;1493;51.496;7.210;2024-01-06T04:41:26;13.20;;;8.80;;
2966;SDS011;1493;51.496;7.210;2024-01-06T04:43:53;15.20;;;8.60;;
2966;SDS011;1493;51.496;7.210;2024-01-06T04:46:20;13.10;;;8.23;;
2966;SDS011;1493;51.496;7.210;2024-01-06T04:48:47;16.83;;;9.37;;
2966;SDS011;1493;51.496;7.210;2024-01-06T04:51:13;13.30;;;9.40;;
2966;SDS011;1493;51.496;7.210;2024-01-06T04:53:40;14.10;;;8.70;;
2966;SDS011;1493;51.496;7.210;2024-01-06T04:56:07;16.00;;;8.93;;
2966;SDS011;1493;51.496;7.210;2024-01-06T04:58:35;14.67;;;9.00;;
2966;SDS011;1493;51.496;7.210;2024-01-06T05:01:02;15.20;;;9.90;;
2966;SDS011;1493;51.496;7.210;2024-01-06T05:03:29;16.00;;;10.10;;
2966;SDS011;1493;51.496;7.210;2024-01-06T05:05:56;12.70;;;8.63;;
2966;SDS011;1493;51.496;7.210;2024-01-06T05:08:23;13.93;;;9.00;;
2966;SDS011;1493;51.496;7.210;2024-01-06T05:10:51;13.70;;;9.33;;
2966;SDS011;1493;51.496;7.210;2024-01-06T05:13:19;15.90;;;8.97;;
2966;SDS011;1493;51.496;7.210;2024-01-06T05:15:47;16.77;;;10.13;;
2966;SDS011;1493;51.496;7.210;2024-01-06T05:18:14;19.73;;;11.03;;
2966;SDS011;1493;51.496;7.210;2024-01-06T05:20:41;15.50;;;10.80;;
2966;SDS011;1493;51.496;7.210;2024-01-06T05:23:08;15.40;;;10.07;;
2966;SDS011;1493;51.496;7.210;2024-01-06T05:25:35;14.70;;;9.23;;
2966;SDS011;1493;51.496;7.210;2024-01-06T05:28:02;13.87;;;8.70;;
2966;SDS011;1493;51.496;7.210;2024-01-06T05:30:29;16.20;;;9.77;;
2966;SDS011;1493;51.496;7.210;2024-01-06T05:32:57;15.43;;;10.43;;
2966;SDS011;1493;51.496;7.210;2024-01-06T05:35:24;15.70;;;9.97;;
2966;SDS011;1493;51.496;7.210;2024-01-06T05:37:51;15.37;;;8.93;;
2966;SDS011;1493;51.496;7.210;2024-01-06T05:40:18;15.60;;;9.50;;
2966;SDS011;1493;51.496;7.210;2024-01-06T05:42:44;13.70;;;9.10;;
2966;SDS011;1493;51.496;7.210;2024-01-06T05:45:11;18.43;;;10.17;;
2966;SDS011;1493;51.496;7.210;2024-01-06T05:47:38;15.30;;;10.13;;
2966;SDS011;1493;51.496;7.210;2024-01-06T05:50:07;12.10;;;8.67;;
2966;SDS011;1493;51.496;7.210;2024-01-06T05:52:35;16.83;;;9.67;;
2966;SDS011;1493;51.496;7.210;2024-01-06T05:55:02;14.07;;;9.97;;
2966;SDS011;1493;51.496;7.210;2024-01-06T05:57:30;13.30;;;8.60;;
2966;SDS011;1493;51.496;7.210;2024-01-06T05:59:57;14.90;;;10.20;;
2966;SDS011;1493;51.496;7.210;2024-01-06T06:02:24;15.57;;;9.70;;
2966;SDS011;1493;51.496;7.210;2024-01-06T06:04:50;13.27;;;9.20;;
2966;SDS011;1493;51.496;7.210;2024-01-06T06:07:19;16.07;;;9.40;;
2966;SDS011;1493;51.496;7.210;2024-01-06T06:09:46;13.93;;;9.30;;
2966;SDS011;1493;51.496;7.210;2024-01-06T06:12:13;17.33;;;10.30;;
2966;SDS011;1493;51.496;7.210;2024-01-06T06:14:40;15.30;;;9.20;;
2966;SDS011;1493;51.496;7.210;2024-01-06T06:17:07;12.90;;;8.67;;
2966;SDS011;1493;51.496;7.210;2024-01-06T06:19:33;15.00;;;9.90;;
2966;SDS011;1493;51.496;7.210;2024-01-06T06:22:00;11.40;;;7.37;;
2966;SDS011;1493;51.496;7.210;2024-01-06T06:24:28;10.60;;;7.30;;
2966;SDS011;1493;51.496;7.210;2024-01-06T06:26:56;13.50;;;8.40;;
2966;SDS011;1493;51.496;7.210;2024-01-06T06:29:23;13.20;;;9.17;;
2966;SDS011;1493;51.496;7.210;2024-01-06T06:31:49;12.10;;;8.37;;
2966;SDS011;1493;51.496;7.210;2024-01-06T06:34:16;11.27;;;8.00;;
2966;SDS011;1493;51.496;7.210;2024-01-06T06:36:43;14.97;;;9.93;;
2966;SDS011;1493;51.496;7.210;2024-01-06T06:39:11;15.10;;;9.40;;
2966;SDS011;1493;51.496;7.210;2024-01-06T06:41:39;13.77;;;9.20;;
2966;SDS011;1493;51.496;7.210;2024-01-06T06:44:06;14.97;;;8.97;;
2966;SDS011;1493;51.496;7.210;2024-01-06T06:46:32;15.67;;;10.00;;
2966;SDS011;1493;51.496;7.210;2024-01-06T06:48:59;13.50;;;9.20;;
2966;SDS011;1493;51.496;7.210;2024-01-06T06:51:26;14.27;;;9.60;;
2966;SDS011;1493;51.496;7.210;2024-01-06T06:53:53;13.97;;;8.97;;
2966;SDS011;1493;51.496;7.210;2024-01-06T06:56:20;12.40;;;8.63;;
2966;SDS011;1493;51.496;7.210;2024-01-06T06:58:48;17.37;;;10.37;;
2966;SDS011;1493;51.496;7.210;2024-01-06T07:01:17;16.33;;;10.00;;
2966;SDS011;1493;51.496;7.210;2024-01-06T07:03:44;16.57;;;10.37;;
2966;SDS011;1493;51.496;7.210;2024-01-06T07:06:11;14.60;;;9.30;;
2966;SDS011;1493;51.496;7.210;2024-01-06T07:08:38;13.27;;;9.10;;
2966;SDS011;1493;51.496;7.210;2024-01-06T07:11:06;14.87;;;10.07;;
2966;SDS011;1493;51.496;7.210;2024-01-06T07:13:34;15.83;;;10.30;;
2966;SDS011;1493;51.496;7.210;2024-01-06T07:16:02;14.47;;;9.23;;
2966;SDS011;1493;51.496;7.210;2024-01-06T07:18:29;15.00;;;8.93;;
2966;SDS011;1493;51.496;7.210;2024-01-06T07:20:56;14.53;;;9.80;;
2966;SDS011;1493;51.496;7.210;2024-01-06T07:23:23;16.67;;;9.40;;
2966;SDS011;1493;51.496;7.210;2024-01-06T07:25:50;16.93;;;10.93;;
2966;SDS011;1493;51.496;7.210;2024-01-06T07:28:16;17.10;;;11.17;;
2966;SDS011;1493;51.496;7.210;2024-01-06T07:30:43;16.63;;;11.53;;
2966;SDS011;1493;51.496;7.210;2024-01-06T07:33:11;17.70;;;11.80;;
2966;SDS011;1493;51.496;7.210;2024-01-06T07:35:38;21.00;;;13.10;;
2966;SDS011;1493;51.496;7.210;2024-01-06T07:38:08;20.40;;;12.13;;
2966;SDS011;1493;51.496;7.210;2024-01-06T07:40:35;18.43;;;9.93;;
2966;SDS011;1493;51.496;7.210;2024-01-06T07:43:02;20.50;;;12.60;;
2966;SDS011;1493;51.496;7.210;2024-01-06T07:45:30;25.63;;;12.20;;
2966;SDS011;1493;51.496;7.210;2024-01-06T07:48:00;20.43;;;11.40;;
2966;SDS011;1493;51.496;7.210;2024-01-06T07:50:28;19.00;;;11.27;;
2966;SDS011;1493;51.496;7.210;2024-01-06T07:52:55;22.20;;;13.37;;
2966;SDS011;1493;51.496;7.210;2024-01-06T07:55:23;20.43;;;12.50;;
2966;SDS011;1493;51.496;7.210;2024-01-06T07:57:51;23.00;;;12.07;;
2966;SDS011;1493;51.496;7.210;2024-01-06T08:00:18;26.03;;;12.43;;
2966;SDS011;1493;51.496;7.210;2024-01-06T08:02:45;24.77;;;13.37;;
2966;SDS011;1493;51.496;7.210;2024-01-06T08:05:12;22.27;;;13.10;;
2966;SDS011;1493;51.496;7.210;2024-01-06T08:07:41;21.83;;;11.20;;
2966;SDS011;1493;51.496;7.210;2024-01-06T08:10:08;21.33;;;11.47;;
2966;SDS011;1493;51.496;7.210;2024-01-06T08:12:35;23.30;;;12.47;;
2966;SDS011;1493;51.496;7.210;2024-01-06T08:15:02;19.30;;;12.00;;
2966;SDS011;1493;51.496;7.210;2024-01-06T08:17:29;14.00;;;9.47;;
2966;SDS011;1493;51.496;7.210;2024-01-06T08:19:56;18.70;;;10.93;;
2966;SDS011;1493;51.496;7.210;2024-01-06T08:22:23;20.50;;;11.00;;
2966;SDS011;1493;51.496;7.210;2024-01-06T08:24:51;19.20;;;10.67;;
2966;SDS011;1493;51.496;7.210;2024-01-06T08:27:18;16.40;;;10.10;;
2966;SDS011;1493;51.496;7.210;2024-01-06T08:29:46;20.43;;;11.40;;
2966;SDS011;1493;51.496;7.210;2024-01-06T08:32:13;19.00;;;12.23;;
2966;SDS011;1493;51.496;7.210;2024-01-06T08:34:40;15.97;;;9.80;;
2966;SDS011;1493;51.496;7.210;2024-01-06T08:37:06;22.97;;;11.60;;
2966;SDS011;1493;51.496;7.210;2024-01-06T08:39:33;20.77;;;11.93;;
2966;SDS011;1493;51.496;7.210;2024-01-06T08:42:01;19.47;;;11.40;;
2966;SDS011;1493;51.496;7.210;2024-01-06T08:44:28;20.40;;;12.17;;
2966;SDS011;1493;51.496;7.210;2024-01-06T08:46:55;18.37;;;11.43;;
2966;SDS011;1493;51.496;7.210;2024-01-06T08:49:22;22.00;;;12.40;;
2966;SDS011;1493;51.496;7.210;2024-01-06T08:51:49;21.67;;;11.73;;
2966;SDS011;1493;51.496;7.210;2024-01-06T08:54:16;22.83;;;11.53;;
2966;SDS011;1493;51.496;7.210;2024-01-06T08:56:42;16.40;;;9.97;;
2966;SDS011;1493;51.496;7.210;2024-01-06T08:59:11;20.30;;;11.27;;
2966;SDS011;1493;51.496;7.210;2024-01-06T09:01:37;26.27;;;13.67;;
2966;SDS011;1493;51.496;7.210;2024-01-06T09:04:04;23.03;;;12.87;;
2966;SDS011;1493;51.496;7.210;2024-01-06T09:06:32;18.40;;;10.07;;
2966;SDS011;1493;51.496;7.210;2024-01-06T09:08:59;24.13;;;11.00;;
2966;SDS011;1493;51.496;7.210;2024-01-06T09:11:26;19.57;;;10.87;;
2966;SDS011;1493;51.496;7.210;2024-01-06T09:13:52;19.00;;;10.30;;
2966;SDS011;1493;51.496;7.210;2024-01-06T09:16:21;19.23;;;10.97;;
2966;SDS011;1493;51.496;7.210;2024-01-06T09:18:47;14.00;;;8.37;;
2966;SDS011;1493;51.496;7.210;2024-01-06T09:21:14;14.30;;;9.53;;
2966;SDS011;1493;51.496;7.210;2024-01-06T09:23:42;14.50;;;8.30;;
2966;SDS011;1493;51.496;7.210;2024-01-06T09:26:09;21.40;;;10.20;;
2966;SDS011;1493;51.496;7.210;2024-01-06T09:28:36;16.37;;;7.97;;
2966;SDS011;1493;51.496;7.210;2024-01-06T09:31:03;16.50;;;8.77;;
2966;SDS011;1493;51.496;7.210;2024-01-06T09:33:31;13.60;;;7.80;;
2966;SDS011;1493;51.496;7.210;2024-01-06T09:36:01;13.47;;;7.80;;
2966;SDS011;1493;51.496;7.210;2024-01-06T09:38:28;12.87;;;7.00;;
2966;SDS011;1493;51.496;7.210;2024-01-06T09:40:55;11.77;;;6.50;;
2966;SDS011;1493;51.496;7.210;2024-01-06T09:43:24;10.17;;;7.20;;
2966;SDS011;1493;51.496;7.210;2024-01-06T09:45:56;13.50;;;7.47;;
2966;SDS011;1493;51.496;7.210;2024-01-06T09:48:28;11.47;;;6.53;;
2966;SDS011;1493;51.496;7.210;2024-01-06T09:50:57;11.50;;;7.57;;
2966;SDS011;1493;51.496;7.210;2024-01-06T09:53:32;11.50;;;6.53;;
2966;SDS011;1493;51.496;7.210;2024-01-06T09:56:01;9.80;;;6.47;;
2966;SDS011;1493;51.496;7.210;2024-01-06T09:58:29;11.10;;;6.23;;
2966;SDS011;1493;51.496;7.210;2024-01-06T10:00:59;15.17;;;8.37;;
2966;SDS011;1493;51.496;7.210;2024-01-06T10:03:27;9.53;;;6.63;;
2966;SDS011;1493;51.496;7.210;2024-01-06T10:05:54;6.73;;;5.40;;
2966;SDS011;1493;51.496;7.210;2024-01-06T10:08:26;8.97;;;6.10;;
2966;SDS011;1493;51.496;7.210;2024-01-06T10:10:53;9.40;;;5.57;;
2966;SDS011;1493;51.496;7.210;2024-01-06T10:13:20;8.93;;;5.60;;
2966;SDS011;1493;51.496;7.210;2024-01-06T10:15:49;8.57;;;5.40;;
2966;SDS011;1493;51.496;7.210;2024-01-06T10:18:16;9.87;;;5.17;;
2966;SDS011;1493;51.496;7.210;2024-01-06T10:20:47;7.37;;;5.50;;
2966;SDS011;1493;51.496;7.210;2024-01-06T10:23:14;9.27;;;5.90;;
2966;SDS011;1493;51.496;7.210;2024-01-06T10:25:42;12.47;;;6.20;;
2966;SDS011;1493;51.496;7.210;2024-01-06T10:28:10;7.73;;;6.07;;
2966;SDS011;1493;51.496;7.210;2024-01-06T10:30:38;9.90;;;6.60;;
2966;SDS011;1493;51.496;7.210;2024-01-06T10:33:07;11.97;;;6.90;;
2966;SDS011;1493;51.496;7.210;2024-01-06T10:35:34;9.30;;;7.47;;
2966;SDS011;1493;51.496;7.210;2024-01-06T10:38:02;9.87;;;7.57;;
2966;SDS011;1493;51.496;7.210;2024-01-06T10:40:29;10.60;;;7.03;;
2966;SDS011;1493;51.496;7.210;2024-01-06T10:42:57;11.10;;;6.70;;
2966;SDS011;1493;51.496;7.210;2024-01-06T10:45:26;10.40;;;7.27;;
2966;SDS011;1493;51.496;7.210;2024-01-06T10:47:55;10.30;;;7.97;;
2966;SDS011;1493;51.496;7.210;2024-01-06T10:50:23;15.67;;;8.90;;
2966;SDS011;1493;51.496;7.210;2024-01-06T10:52:52;11.60;;;7.40;;
2966;SDS011;1493;51.496;7.210;2024-01-06T10:55:21;11.70;;;8.20;;
2966;SDS011;1493;51.496;7.210;2024-01-06T10:57:49;10.50;;;6.23;;
2966;SDS011;1493;51.496;7.210;2024-01-06T11:00:19;11.20;;;6.73;;
2966;SDS011;1493;51.496;7.210;2024-01-06T11:02:46;11.67;;;6.83;;
2966;SDS011;1493;51.496;7.210;2024-01-06T11:05:18;12.87;;;8.00;;
2966;SDS011;1493;51.496;7.210;2024-01-06T11:07:46;15.00;;;8.40;;
2966;SDS011;1493;51.496;7.210;2024-01-06T11:10:17;13.07;;;7.47;;
2966;SDS011;1493;51.496;7.210;2024-01-06T11:12:45;12.80;;;7.70;;
2966;SDS011;1493;51.496;7.210;2024-01-06T11:15:39;11.37;;;7.73;;
2966;SDS011;1493;51.496;7.210;2024-01-06T11:18:29;12.17;;;7.13;;
2966;SDS011;1493;51.496;7.210;2024-01-06T11:21:14;15.97;;;8.67;;
2966;SDS011;1493;51.496;7.210;2024-01-06T11:26:45;13.70;;;10.03;;
2966;SDS011;1493;51.496;7.210;2024-01-06T11:29:15;12.80;;;7.97;;
2966;SDS011;1493;51.496;7.210;2024-01-06T11:31:44;19.57;;;9.73;;
2966;SDS011;1493;51.496;7.210;2024-01-06T11:34:42;16.43;;;10.53;;
2966;SDS011;1493;51.496;7.210;2024-01-06T11:37:14;18.43;;;11.17;;
2966;SDS011;1493;51.496;7.210;2024-01-06T11:39:42;15.50;;;10.23;;
2966;SDS011;1493;51.496;7.210;2024-01-06T11:42:10;16.30;;;9.57;;
2966;SDS011;1493;51.496;7.210;2024-01-06T11:44:37;14.73;;;8.13;;
2966;SDS011;1493;51.496;7.210;2024-01-06T11:47:06;13.20;;;8.43;;
2966;SDS011;1493;51.496;7.210;2024-01-06T11:49:34;15.70;;;9.27;;
2966;SDS011;1493;51.496;7.210;2024-01-06T11:52:01;15.97;;;9.33;;
2966;SDS011;1493;51.496;7.210;2024-01-06T11:54:28;14.27;;;8.17;;
2966;SDS011;1493;51.496;7.210;2024-01-06T11:56:56;13.30;;;8.37;;
2966;SDS011;1493;51.496;7.210;2024-01-06T11:59:23;14.10;;;8.00;;
2966;SDS011;1493;51.496;7.210;2024-01-06T12:01:50;12.20;;;7.97;;
2966;SDS011;1493;51.496;7.210;2024-01-06T12:04:18;14.93;;;7.93;;
2966;SDS011;1493;51.496;7.210;2024-01-06T12:06:47;13.03;;;8.70;;
2966;SDS011;1493;51.496;7.210;2024-01-06T12:09:14;13.93;;;8.63;;
2966;SDS011;1493;51.496;7.210;2024-01-06T12:11:44;14.03;;;8.60;;
2966;SDS011;1493;51.496;7.210;2024-01-06T12:14:12;17.10;;;10.83;;
2966;SDS011;1493;51.496;7.210;2024-01-06T12:16:38;18.02;;;11.75;;
2966;SDS011;1493;51.496;7.210;2024-01-06T12:19:05;14.77;;;8.80;;
2966;SDS011;1493;51.496;7.210;2024-01-06T12:21:33;15.27;;;8.73;;
2966;SDS011;1493;51.496;7.210;2024-01-06T12:24:15;18.47;;;9.53;;
2966;SDS011;1493;51.496;7.210;2024-01-06T12:26:45;16.87;;;9.50;;
2966;SDS011;1493;51.496;7.210;2024-01-06T12:29:12;16.30;;;8.73;;
2966;SDS011;1493;51.496;7.210;2024-01-06T12:31:39;16.00;;;9.13;;
2966;SDS011;1493;51.496;7.210;2024-01-06T12:34:06;20.97;;;11.20;;
2966;SDS011;1493;51.496;7.210;2024-01-06T12:36:35;20.07;;;10.57;;
2966;SDS011;1493;51.496;7.210;2024-01-06T12:39:02;30.33;;;12.83;;
2966;SDS011;1493;51.496;7.210;2024-01-06T12:41:29;21.97;;;13.40;;
2966;SDS011;1493;51.496;7.210;2024-01-06T12:43:58;19.97;;;11.83;;
2966;SDS011;1493;51.496;7.210;2024-01-06T12:46:25;23.00;;;12.20;;
2966;SDS011;1493;51.496;7.210;2024-01-06T12:48:52;19.80;;;11.87;;
2966;SDS011;1493;51.496;7.210;2024-01-06T12:51:19;24.30;;;15.13;;
2966;SDS011;1493;51.496;7.210;2024-01-06T12:53:47;23.50;;;11.80;;
2966;SDS011;1493;51.496;7.210;2024-01-06T12:56:14;21.30;;;12.17;;
2966;SDS011;1493;51.496;7.210;2024-01-06T12:58:41;18.33;;;12.20;;
2966;SDS011;1493;51.496;7.210;2024-01-06T13:01:07;20.47;;;11.47;;
2966;SDS011;1493;51.496;7.210;2024-01-06T13:03:33;23.17;;;13.47;;
2966;SDS011;1493;51.496;7.210;2024-01-06T13:06:00;23.23;;;11.70;;
2966;SDS011;1493;51.496;7.210;2024-01-06T13:08:28;26.53;;;13.67;;
2966;SDS011;1493;51.496;7.210;2024-01-06T13:10:56;23.27;;;11.30;;
2966;SDS011;1493;51.496;7.210;2024-01-06T13:13:23;22.43;;;12.53;;
2966;SDS011;1493;51.496;7.210;2024-01-06T13:15:50;20.53;;;12.00;;
2966;SDS011;1493;51.496;7.210;2024-01-06T13:18:17;17.20;;;10.60;;
2966;SDS011;1493;51.496;7.210;2024-01-06T13:20:43;17.07;;;11.40;;
2966;SDS011;1493;51.496;7.210;2024-01-06T13:23:10;19.40;;;11.23;;
2966;SDS011;1493;51.496;7.210;2024-01-06T13:25:37;18.47;;;10.37;;
2966;SDS011;1493;51.496;7.210;2024-01-06T13:28:06;19.93;;;11.10;;
2966;SDS011;1493;51.496;7.210;2024-01-06T13:30:33;16.93;;;9.70;;
2966;SDS011;1493;51.496;7.210;2024-01-06T13:33:01;18.40;;;10.50;;
2966;SDS011;1493;51.496;7.210;2024-01-06T13:35:30;17.27;;;10.73;;
2966;SDS011;1493;51.496;7.210;2024-01-06T13:37:57;18.30;;;9.77;;
2966;SDS011;1493;51.496;7.210;2024-01-06T13:40:24;20.83;;;10.47;;
2966;SDS011;1493;51.496;7.210;2024-01-06T13:42:51;17.57;;;10.20;;
2966;SDS011;1493;51.496;7.210;2024-01-06T13:45:19;19.40;;;9.93;;
2966;SDS011;1493;51.496;7.210;2024-01-06T13:47:46;16.70;;;9.13;;
2966;SDS011;1493;51.496;7.210;2024-01-06T13:50:13;12.40;;;7.20;;
2966;SDS011;1493;51.496;7.210;2024-01-06T13:52:41;16.77;;;9.07;;
2966;SDS011;1493;51.496;7.210;2024-01-06T13:55:08;14.37;;;9.33;;
2966;SDS011;1493;51.496;7.210;2024-01-06T13:57:35;15.63;;;8.67;;
2966;SDS011;1493;51.496;7.210;2024-01-06T14:00:06;10.47;;;6.63;;
2966;SDS011;1493;51.496;7.210;2024-01-06T14:02:35;13.97;;;8.03;;
2966;SDS011;1493;51.496;7.210;2024-01-06T14:05:03;13.83;;;7.70;;
2966;SDS011;1493;51.496;7.210;2024-01-06T14:07:33;14.30;;;8.13;;
2966;SDS011;1493;51.496;7.210;2024-01-06T14:10:00;14.80;;;7.53;;
2966;SDS011;1493;51.496;7.210;2024-01-06T14:12:28;15.43;;;8.20;;
2966;SDS011;1493;51.496;7.210;2024-01-06T14:14:56;17.10;;;10.23;;
2966;SDS011;1493;51.496;7.210;2024-01-06T14:17:23;20.97;;;10.00;;
2966;SDS011;1493;51.496;7.210;2024-01-06T14:19:51;15.40;;;10.20;;
2966;SDS011;1493;51.496;7.210;2024-01-06T14:22:21;22.60;;;12.33;;
2966;SDS011;1493;51.496;7.210;2024-01-06T14:24:48;19.67;;;10.47;;
2966;SDS011;1493;51.496;7.210;2024-01-06T14:27:15;22.80;;;12.97;;
2966;SDS011;1493;51.496;7.210;2024-01-06T14:29:42;21.77;;;12.40;;
2966;SDS011;1493;51.496;7.210;2024-01-06T14:32:09;22.43;;;11.67;;
2966;SDS011;1493;51.496;7.210;2024-01-06T14:34:35;20.60;;;12.63;;
2966;SDS011;1493;51.496;7.210;2024-01-06T14:37:04;18.37;;;10.20;;
2966;SDS011;1493;51.496;7.210;2024-01-06T14:39:31;19.70;;;11.80;;
2966;SDS011;1493;51.496;7.210;2024-01-06T14:41:57;20.30;;;11.03;;
2966;SDS011;1493;51.496;7.210;2024-01-06T14:44:24;20.53;;;11.53;;
2966;SDS011;1493;51.496;7.210;2024-01-06T14:46:53;20.20;;;10.10;;
2966;SDS011;1493;51.496;7.210;2024-01-06T14:49:20;19.97;;;11.07;;
2966;SDS011;1493;51.496;7.210;2024-01-06T14:51:49;18.67;;;11.10;;
2966;SDS011;1493;51.496;7.210;2024-01-06T14:54:17;25.90;;;9.90;;
2966;SDS011;1493;51.496;7.210;2024-01-06T14:56:43;17.20;;;10.27;;
2966;SDS011;1493;51.496;7.210;2024-01-06T14:59:11;20.33;;;10.70;;
2966;SDS011;1493;51.496;7.210;2024-01-06T15:01:42;17.33;;;10.87;;